createdAt,value
2023-07-15T00:00:00.211Z,100252.50
2023-07-15T00:00:13.608Z,100253.88
2023-07-15T00:00:25.551Z,100258.50
2023-07-15T00:00:37.460Z,100254.69
2023-07-15T00:00:52.137Z,100256.88
2023-07-15T00:01:10.301Z,100246.25
2023-07-15T00:01:25.624Z,100258.22
2023-07-15T00:01:38.839Z,100256.06
2023-07-15T00:01:51.272Z,100256.06
2023-07-15T00:02:03.579Z,100254.41
2023-07-15T00:02:15.466Z,100261.50
2023-07-15T00:02:27.454Z,100258.22
2023-07-15T00:02:39.537Z,100261.50
2023-07-15T00:02:51.683Z,100257.41
2023-07-15T00:03:19.807Z,100260.97
2023-07-15T00:03:31.930Z,100256.63
2023-07-15T00:03:44.041Z,100245.13
2023-07-15T00:03:56.683Z,100248.16
2023-07-15T00:04:13.131Z,100259.34
2023-07-15T00:04:25.470Z,100244.63
2023-07-15T00:04:37.534Z,100247.59
2023-07-15T00:04:49.605Z,100254.41
2023-07-15T00:05:01.840Z,100257.41
2023-07-15T00:05:19.090Z,100246.25
2023-07-15T00:05:33.028Z,100257.41
2023-07-15T00:05:45.226Z,100251.16
2023-07-15T00:05:57.174Z,100252.50
2023-07-15T00:06:10.750Z,100257.69
2023-07-15T00:06:24.458Z,100250.88
2023-07-15T00:06:36.431Z,100256.31
2023-07-15T00:06:48.757Z,100252.25
2023-07-15T00:07:00.900Z,100245.69
2023-07-15T00:07:13.074Z,100254.97
2023-07-15T00:07:25.239Z,100254.16
2023-07-15T00:07:37.542Z,100244.06
2023-07-15T00:07:49.918Z,100253.88
2023-07-15T00:08:02.270Z,100250.06
2023-07-15T00:08:15.011Z,100251.69
2023-07-15T00:08:28.684Z,100246.25
2023-07-15T00:08:40.939Z,100258.22
2023-07-15T00:08:53.647Z,100257.41
2023-07-15T00:09:08.213Z,100252.25
2023-07-15T00:09:20.573Z,100257.41
2023-07-15T00:09:32.713Z,100264.22
2023-07-15T00:09:44.672Z,100256.88
2023-07-15T00:09:56.696Z,100242.16
2023-07-15T00:10:09.912Z,100257.13
2023-07-15T00:10:23.243Z,100264.50
2023-07-15T00:10:38.575Z,100248.72
2023-07-15T00:10:50.903Z,100254.41
2023-07-15T00:11:03.559Z,100260.66
2023-07-15T00:11:22.282Z,100259.84
2023-07-15T00:11:37.489Z,100259.03
2023-07-15T00:11:49.393Z,100257.94
2023-07-15T00:12:01.488Z,100267.75
2023-07-15T00:12:13.505Z,100242.97
2023-07-15T00:12:25.684Z,100263.38
2023-07-15T00:12:39.600Z,100251.69
2023-07-15T00:12:51.682Z,100257.94
2023-07-15T00:13:03.970Z,100252.75
2023-07-15T00:13:17.669Z,100253.31
2023-07-15T00:13:29.751Z,100259.31
2023-07-15T00:13:41.817Z,100258.50
2023-07-15T00:13:57.400Z,100263.13
2023-07-15T00:14:18.386Z,100250.59
2023-07-15T00:14:38.038Z,100258.78
2023-07-15T00:14:50.101Z,100255.22
2023-07-15T00:15:02.233Z,100259.84
2023-07-15T00:15:14.758Z,100255.22
2023-07-15T00:15:27.202Z,100257.13
2023-07-15T00:15:39.368Z,100251.69
2023-07-15T00:15:52.457Z,100248.41
2023-07-15T00:16:04.731Z,100254.41
2023-07-15T00:16:17.126Z,100259.84
2023-07-15T00:16:31.383Z,100261.22
2023-07-15T00:16:43.759Z,100262.03
2023-07-15T00:16:56.143Z,100251.94
2023-07-15T00:17:08.762Z,100253.03
2023-07-15T00:17:20.688Z,100257.94
2023-07-15T00:17:32.761Z,100255.47
2023-07-15T00:17:45.349Z,100252.75
2023-07-15T00:17:57.652Z,100253.59
2023-07-15T00:18:11.525Z,100259.59
2023-07-15T00:18:23.668Z,100248.16
2023-07-15T00:18:35.858Z,100251.69
2023-07-15T00:18:48.443Z,100257.13
2023-07-15T00:19:00.662Z,100250.31
2023-07-15T00:19:12.719Z,100258.75
2023-07-15T00:19:25.151Z,100257.13
2023-07-15T00:19:37.155Z,100253.84
2023-07-15T00:19:51.660Z,100248.13
2023-07-15T00:20:04.517Z,100252.25
2023-07-15T00:20:16.714Z,100255.47
2023-07-15T00:20:29.002Z,100263.66
2023-07-15T00:20:41.456Z,100246.75
2023-07-15T00:20:53.620Z,100252.25
2023-07-15T00:21:15.150Z,100250.59
2023-07-15T00:21:29.188Z,100252.25
2023-07-15T00:21:41.269Z,100257.38
2023-07-15T00:21:53.468Z,100256.84
2023-07-15T00:22:06.324Z,100256.84
2023-07-15T00:22:18.367Z,100268.00
2023-07-15T00:22:30.421Z,100244.31
2023-07-15T00:22:43.332Z,100252.75
2023-07-15T00:22:55.724Z,100248.13
2023-07-15T00:23:22.418Z,100251.41
2023-07-15T00:23:35.832Z,100244.31
2023-07-15T00:23:48.856Z,100245.13
2023-07-15T00:24:01.140Z,100251.69
2023-07-15T00:24:13.149Z,100243.78
2023-07-15T00:24:25.315Z,100245.41
2023-07-15T00:24:45.949Z,100249.47
2023-07-15T00:24:58.086Z,100262.03
2023-07-15T00:25:13.789Z,100240.75
2023-07-15T00:25:26.335Z,100252.75
2023-07-15T00:25:38.260Z,100246.50
2023-07-15T00:25:51.738Z,100246.50
2023-07-15T00:26:04.126Z,100263.38
2023-07-15T00:26:16.383Z,100244.88
2023-07-15T00:26:31.634Z,100251.66
2023-07-15T00:26:43.910Z,100245.69
2023-07-15T00:26:56.100Z,100248.94
2023-07-15T00:27:09.304Z,100258.50
2023-07-15T00:27:21.426Z,100259.31
2023-07-15T00:27:33.706Z,100253.56
2023-07-15T00:27:46.312Z,100253.84
2023-07-15T00:27:58.350Z,100250.28
2023-07-15T00:28:13.063Z,100256.28
2023-07-15T00:28:25.121Z,100256.28
2023-07-15T00:28:37.343Z,100256.28
2023-07-15T00:28:49.800Z,100248.41
2023-07-15T00:29:02.891Z,100249.75
2023-07-15T00:29:15.204Z,100256.03
2023-07-15T00:29:27.432Z,100262.03
2023-07-15T00:29:40.180Z,100247.31
2023-07-15T00:29:52.596Z,100251.38
2023-07-15T00:30:05.688Z,100260.38
2023-07-15T00:30:19.156Z,100253.56
2023-07-15T00:30:32.678Z,100262.28
2023-07-15T00:30:48.384Z,100256.03
2023-07-15T00:31:01.604Z,100263.63
2023-07-15T00:31:15.756Z,100241.31
2023-07-15T00:31:28.917Z,100260.91
2023-07-15T00:31:41.068Z,100253.81
2023-07-15T00:31:53.228Z,100260.91
2023-07-15T00:32:11.328Z,100256.53
2023-07-15T00:32:23.432Z,100253.00
2023-07-15T00:32:35.725Z,100249.19
2023-07-15T00:32:49.609Z,100255.72
2023-07-15T00:33:02.212Z,100254.91
2023-07-15T00:33:16.619Z,100256.81
2023-07-15T00:33:31.085Z,100257.09
2023-07-15T00:33:43.584Z,100256.53
2023-07-15T00:33:55.845Z,100254.63
2023-07-15T00:34:09.511Z,100260.34
2023-07-15T00:34:21.803Z,100249.19
2023-07-15T00:34:33.975Z,100256.53
2023-07-15T00:34:49.094Z,100250.28
2023-07-15T00:35:04.718Z,100259.56
2023-07-15T00:35:23.076Z,100252.44
2023-07-15T00:35:35.560Z,100259.81
2023-07-15T00:35:49.340Z,100238.84
2023-07-15T00:36:01.326Z,100249.72
2023-07-15T00:36:14.782Z,100243.47
2023-07-15T00:36:27.961Z,100254.09
2023-07-15T00:36:40.413Z,100258.72
2023-07-15T00:36:55.237Z,100246.75
2023-07-15T00:37:08.212Z,100254.63
2023-07-15T00:37:20.430Z,100249.19
2023-07-15T00:37:32.631Z,100259.81
2023-07-15T00:37:44.832Z,100256.28
2023-07-15T00:37:57.101Z,100254.38
2023-07-15T00:38:09.173Z,100256.78
2023-07-15T00:38:21.164Z,100251.63
2023-07-15T00:38:33.205Z,100262.28
2023-07-15T00:38:46.911Z,100256.53
2023-07-15T00:38:58.879Z,100260.88
2023-07-15T00:39:10.916Z,100253.81
2023-07-15T00:39:22.985Z,100257.34
2023-07-15T00:39:35.245Z,100259.25
2023-07-15T00:39:47.943Z,100250.78
2023-07-15T00:40:00.249Z,100261.72
2023-07-15T00:40:13.430Z,100258.97
2023-07-15T00:40:26.550Z,100254.06
2023-07-15T00:40:41.786Z,100253.00
2023-07-15T00:40:53.989Z,100252.19
2023-07-15T00:41:13.071Z,100260.88
2023-07-15T00:41:29.580Z,100245.63
2023-07-15T00:41:41.663Z,100244.84
2023-07-15T00:41:56.950Z,100247.00
2023-07-15T00:42:17.145Z,100256.78
2023-07-15T00:43:02.834Z,100253.25
2023-07-15T00:43:51.738Z,100248.91
2023-07-15T00:44:03.305Z,100253.50
2023-07-15T00:44:18.009Z,100251.63
2023-07-15T00:44:29.698Z,100247.81
2023-07-15T00:44:41.471Z,100254.34
2023-07-15T00:44:59.612Z,100242.63
2023-07-15T00:45:11.800Z,100256.25
2023-07-15T00:45:23.483Z,100250.53
2023-07-15T00:45:34.991Z,100247.25
2023-07-15T00:46:29.849Z,100239.38
2023-07-15T00:47:14.180Z,100246.44
2023-07-15T00:47:32.659Z,100252.69
2023-07-15T00:47:48.729Z,100247.25
2023-07-15T00:48:14.499Z,100245.63
2023-07-15T00:48:30.716Z,100252.69
2023-07-15T00:48:52.050Z,100246.16
2023-07-15T00:49:06.967Z,100242.09
2023-07-15T00:49:21.806Z,100248.91
2023-07-15T00:49:36.189Z,100249.97
2023-07-15T00:49:49.901Z,100248.06
2023-07-15T00:50:02.111Z,100246.72
2023-07-15T00:50:15.000Z,100253.50
2023-07-15T00:50:27.862Z,100247.81
2023-07-15T00:50:42.147Z,100249.44
2023-07-15T00:50:54.273Z,100250.28
2023-07-15T00:51:06.474Z,100234.75
2023-07-15T00:51:18.916Z,100254.34
2023-07-15T00:51:34.514Z,100244.00
2023-07-15T00:51:49.703Z,100250.28
2023-07-15T00:52:05.149Z,100239.09
2023-07-15T00:52:21.287Z,100245.91
2023-07-15T00:52:33.622Z,100244.28
2023-07-15T00:52:46.122Z,100244.84
2023-07-15T00:52:58.630Z,100248.63
2023-07-15T00:53:11.458Z,100245.91
2023-07-15T00:53:23.781Z,100241.81
2023-07-15T00:53:36.076Z,100242.06
2023-07-15T00:53:49.970Z,100242.38
2023-07-15T00:54:03.827Z,100248.06
2023-07-15T00:54:17.323Z,100247.00
2023-07-15T00:54:31.295Z,100246.16
2023-07-15T00:54:49.093Z,100247.25
2023-07-15T00:55:12.641Z,100246.44
2023-07-15T00:55:26.400Z,100234.47
2023-07-15T00:55:38.860Z,100248.34
2023-07-15T00:55:53.029Z,100242.91
2023-07-15T00:56:05.885Z,100236.63
2023-07-15T00:56:18.679Z,100238.53
2023-07-15T00:56:32.835Z,100239.34
2023-07-15T00:56:46.319Z,100252.69
2023-07-15T00:56:59.503Z,100246.69
2023-07-15T00:57:13.468Z,100234.19
2023-07-15T00:57:27.689Z,100243.72
2023-07-15T00:57:40.505Z,100246.69
2023-07-15T00:57:55.850Z,100234.16
2023-07-15T00:58:08.220Z,100242.34
2023-07-15T00:58:20.531Z,100248.34
2023-07-15T00:58:33.204Z,100236.88
2023-07-15T00:58:45.456Z,100240.19
2023-07-15T00:58:57.970Z,100248.34
2023-07-15T00:59:13.569Z,100238.78
2023-07-15T00:59:25.757Z,100234.47
2023-07-15T00:59:38.077Z,100239.63
2023-07-15T00:59:52.080Z,100243.16
2023-07-15T01:00:06.358Z,100244.78
2023-07-15T01:00:18.568Z,100229.28
2023-07-15T01:00:33.271Z,100232.00
2023-07-15T01:00:45.642Z,100231.19
2023-07-15T01:00:59.505Z,100242.06
2023-07-15T01:01:12.018Z,100242.34
2023-07-15T01:01:24.621Z,100229.56
2023-07-15T01:01:37.456Z,100238.78
2023-07-15T01:01:50.764Z,100233.91
2023-07-15T01:02:06.421Z,100234.41
2023-07-15T01:02:19.173Z,100237.44
2023-07-15T01:02:31.740Z,100237.72
2023-07-15T01:02:43.920Z,100237.44
2023-07-15T01:02:56.321Z,100243.16
2023-07-15T01:03:08.481Z,100237.19
2023-07-15T01:03:20.879Z,100230.59
2023-07-15T01:03:33.972Z,100242.34
2023-07-15T01:03:47.702Z,100236.91
2023-07-15T01:04:00.023Z,100242.06
2023-07-15T01:04:12.313Z,100238.78
2023-07-15T01:04:24.473Z,100225.75
2023-07-15T01:04:37.309Z,100231.19
2023-07-15T01:04:51.335Z,100234.72
2023-07-15T01:05:04.820Z,100233.91
2023-07-15T01:05:18.822Z,100233.31
2023-07-15T01:05:36.666Z,100237.44
2023-07-15T01:05:49.065Z,100240.44
2023-07-15T01:06:01.302Z,100235.81
2023-07-15T01:06:13.828Z,100241.25
2023-07-15T01:06:26.777Z,100232.84
2023-07-15T01:06:39.186Z,100232.00
2023-07-15T01:06:51.395Z,100235.81
2023-07-15T01:07:04.025Z,100224.94
2023-07-15T01:07:16.133Z,100239.63
2023-07-15T01:07:28.221Z,100230.63
2023-07-15T01:07:40.408Z,100230.38
2023-07-15T01:07:52.640Z,100239.91
2023-07-15T01:08:05.065Z,100235.81
2023-07-15T01:08:17.227Z,100235.28
2023-07-15T01:08:29.417Z,100241.25
2023-07-15T01:08:41.621Z,100237.72
2023-07-15T01:08:53.799Z,100229.00
2023-07-15T01:09:05.927Z,100236.06
2023-07-15T01:09:18.162Z,100232.53
2023-07-15T01:09:33.763Z,100233.09
2023-07-15T01:09:49.003Z,100227.66
2023-07-15T01:10:01.154Z,100234.47
2023-07-15T01:10:14.809Z,100227.31
2023-07-15T01:10:28.387Z,100235.81
2023-07-15T01:10:41.164Z,100235.81
2023-07-15T01:10:53.773Z,100233.31
2023-07-15T01:11:07.848Z,100225.69
2023-07-15T01:11:20.061Z,100238.53
2023-07-15T01:11:32.530Z,100235.22
2023-07-15T01:11:45.905Z,100229.22
2023-07-15T01:11:58.334Z,100233.59
2023-07-15T01:12:13.815Z,100228.41
2023-07-15T01:12:26.091Z,100230.59
2023-07-15T01:12:38.471Z,100227.63
2023-07-15T01:12:50.720Z,100235.22
2023-07-15T01:13:06.603Z,100238.19
2023-07-15T01:13:18.824Z,100224.88
2023-07-15T01:13:31.362Z,100234.13
2023-07-15T01:13:44.076Z,100230.03
2023-07-15T01:13:56.224Z,100235.47
2023-07-15T01:14:09.273Z,100229.78
2023-07-15T01:14:21.655Z,100228.69
2023-07-15T01:14:33.893Z,100238.50
2023-07-15T01:14:47.799Z,100225.97
2023-07-15T01:14:59.938Z,100225.94
2023-07-15T01:15:12.245Z,100218.34
2023-07-15T01:15:24.630Z,100230.59
2023-07-15T01:15:37.050Z,100221.06
2023-07-15T01:15:49.122Z,100228.94
2023-07-15T01:16:04.600Z,100224.28
2023-07-15T01:16:18.631Z,100226.50
2023-07-15T01:16:31.062Z,100218.59
2023-07-15T01:16:45.221Z,100226.50
2023-07-15T01:16:57.883Z,100234.66
2023-07-15T01:17:10.212Z,100231.13
2023-07-15T01:17:22.348Z,100229.47
2023-07-15T01:17:35.211Z,100225.13
2023-07-15T01:17:47.630Z,100225.94
2023-07-15T01:18:00.434Z,100228.66
2023-07-15T01:18:12.857Z,100231.38
2023-07-15T01:18:25.649Z,100230.56
2023-07-15T01:18:37.858Z,100220.50
2023-07-15T01:18:50.080Z,100219.94
2023-07-15T01:19:02.411Z,100220.75
2023-07-15T01:19:14.940Z,100230.28
2023-07-15T01:19:27.355Z,100227.31
2023-07-15T01:19:39.958Z,100237.09
2023-07-15T01:19:52.144Z,100227.00
2023-07-15T01:20:05.245Z,100229.22
2023-07-15T01:20:19.972Z,100224.03
2023-07-15T01:20:34.822Z,100228.38
2023-07-15T01:20:47.374Z,100234.91
2023-07-15T01:20:59.956Z,100227.00
2023-07-15T01:21:15.089Z,100231.63
2023-07-15T01:21:30.812Z,100233.25
2023-07-15T01:21:43.205Z,100227.28
2023-07-15T01:21:55.947Z,100216.38
2023-07-15T01:22:08.314Z,100236.25
2023-07-15T01:22:22.580Z,100227.28
2023-07-15T01:22:38.097Z,100228.63
2023-07-15T01:22:50.423Z,100231.06
2023-07-15T01:23:04.045Z,100230.81
2023-07-15T01:23:18.726Z,100228.63
2023-07-15T01:23:31.489Z,100229.97
2023-07-15T01:23:43.927Z,100229.72
2023-07-15T01:23:56.325Z,100227.25
2023-07-15T01:24:09.121Z,100232.44
2023-07-15T01:24:22.456Z,100232.69
2023-07-15T01:24:37.114Z,100225.06
2023-07-15T01:24:49.552Z,100226.44
2023-07-15T01:25:01.941Z,100232.69
2023-07-15T01:25:17.063Z,100221.25
2023-07-15T01:25:29.327Z,100238.13
2023-07-15T01:25:41.509Z,100235.69
2023-07-15T01:25:56.008Z,100237.84
2023-07-15T01:26:08.633Z,100222.59
2023-07-15T01:26:21.933Z,100234.84
2023-07-15T01:26:34.795Z,100230.78
2023-07-15T01:26:47.862Z,100227.47
2023-07-15T01:27:07.061Z,100231.06
2023-07-15T01:27:19.395Z,100231.31
2023-07-15T01:27:31.511Z,100231.06
2023-07-15T01:27:43.769Z,100225.56
2023-07-15T01:27:55.843Z,100228.84
2023-07-15T01:28:07.855Z,100222.28
2023-07-15T01:28:20.413Z,100222.03
2023-07-15T01:28:32.607Z,100232.38
2023-07-15T01:28:44.766Z,100226.94
2023-07-15T01:28:57.117Z,100222.03
2023-07-15T01:29:09.480Z,100233.47
2023-07-15T01:29:21.786Z,100235.09
2023-07-15T01:29:34.171Z,100225.31
2023-07-15T01:29:47.642Z,100229.66
2023-07-15T01:29:59.851Z,100232.66
2023-07-15T01:30:12.343Z,100227.22
2023-07-15T01:30:24.522Z,100225.31
2023-07-15T01:30:37.425Z,100231.84
2023-07-15T01:30:49.786Z,100231.00
2023-07-15T01:31:05.498Z,100224.22
2023-07-15T01:31:18.715Z,100234.00
2023-07-15T01:31:31.453Z,100232.91
2023-07-15T01:31:43.984Z,100242.16
2023-07-15T01:31:56.383Z,100225.81
2023-07-15T01:32:09.165Z,100228.56
2023-07-15T01:32:21.573Z,100229.63
2023-07-15T01:32:34.097Z,100227.72
2023-07-15T01:32:46.665Z,100231.28
2023-07-15T01:32:59.617Z,100229.94
2023-07-15T01:33:11.905Z,100229.09
2023-07-15T01:33:26.103Z,100229.09
2023-07-15T01:33:38.383Z,100231.25
2023-07-15T01:33:53.134Z,100236.19
2023-07-15T01:34:06.816Z,100228.03
2023-07-15T01:34:19.152Z,100232.66
2023-07-15T01:34:31.753Z,100231.00
2023-07-15T01:34:44.137Z,100230.19
2023-07-15T01:34:56.401Z,100232.09
2023-07-15T01:35:09.509Z,100230.19
2023-07-15T01:35:21.692Z,100235.38
2023-07-15T01:35:33.697Z,100229.06
2023-07-15T01:35:48.314Z,100224.44
2023-07-15T01:36:00.667Z,100222.25
2023-07-15T01:36:13.054Z,100231.25
2023-07-15T01:36:25.787Z,100230.44
2023-07-15T01:36:38.472Z,100232.91
2023-07-15T01:36:50.893Z,100234.25
2023-07-15T01:37:03.544Z,100223.63
2023-07-15T01:37:15.784Z,100231.53
2023-07-15T01:37:28.042Z,100225.25
2023-07-15T01:37:42.159Z,100229.88
2023-07-15T01:37:54.568Z,100237.22
2023-07-15T01:38:06.981Z,100242.41
2023-07-15T01:38:20.779Z,100237.22
2023-07-15T01:38:33.011Z,100242.41
2023-07-15T01:38:45.607Z,100247.28
2023-07-15T01:38:57.761Z,100235.31
2023-07-15T01:39:10.157Z,100241.03
2023-07-15T01:39:22.630Z,100241.03
2023-07-15T01:39:37.598Z,100237.75
2023-07-15T01:39:49.842Z,100230.13
2023-07-15T01:40:05.476Z,100233.94
2023-07-15T01:40:18.823Z,100223.06
2023-07-15T01:40:31.162Z,100233.94
2023-07-15T01:40:44.318Z,100237.47
2023-07-15T01:40:58.731Z,100230.66
2023-07-15T01:41:10.990Z,100238.28
2023-07-15T01:41:23.506Z,100239.94
2023-07-15T01:41:36.165Z,100235.28
2023-07-15T01:41:48.490Z,100230.09
2023-07-15T01:42:00.852Z,100245.34
2023-07-15T01:42:15.029Z,100242.91
2023-07-15T01:42:27.429Z,100244.25
2023-07-15T01:42:39.767Z,100244.81
2023-07-15T01:42:52.384Z,100242.09
2023-07-15T01:43:04.854Z,100237.69
2023-07-15T01:43:21.318Z,100239.06
2023-07-15T01:43:34.116Z,100243.44
2023-07-15T01:43:46.540Z,100249.69
2023-07-15T01:43:58.666Z,100242.31
2023-07-15T01:44:15.840Z,100248.06
2023-07-15T01:44:31.315Z,100246.97
2023-07-15T01:44:44.008Z,100240.41
2023-07-15T01:45:00.875Z,100242.63
2023-07-15T01:45:13.347Z,100242.06
2023-07-15T01:45:25.684Z,100244.78
2023-07-15T01:45:38.505Z,100235.50
2023-07-15T01:45:52.531Z,100236.06
2023-07-15T01:46:05.009Z,100238.22
2023-07-15T01:46:17.433Z,100245.84
2023-07-15T01:46:29.988Z,100246.94
2023-07-15T01:46:42.384Z,100243.13
2023-07-15T01:46:54.909Z,100243.09
2023-07-15T01:47:07.586Z,100241.50
2023-07-15T01:47:20.135Z,100243.66
2023-07-15T01:47:35.110Z,100243.41
2023-07-15T01:47:48.252Z,100242.84
2023-07-15T01:48:00.721Z,100249.09
2023-07-15T01:48:13.068Z,100250.72
2023-07-15T01:48:29.543Z,100241.47
2023-07-15T01:48:42.054Z,100242.84
2023-07-15T01:48:57.219Z,100249.09
2023-07-15T01:49:09.810Z,100243.34
2023-07-15T01:49:22.087Z,100241.19
2023-07-15T01:49:36.220Z,100242.84
2023-07-15T01:49:48.782Z,100238.22
2023-07-15T01:50:01.387Z,100233.28
2023-07-15T01:50:13.814Z,100239.03
2023-07-15T01:50:26.390Z,100245.56
2023-07-15T01:50:38.759Z,100240.38
2023-07-15T01:50:51.099Z,100251.56
2023-07-15T01:51:03.479Z,100242.56
2023-07-15T01:51:15.882Z,100242.00
2023-07-15T01:51:30.871Z,100244.72
2023-07-15T01:51:44.702Z,100240.09
2023-07-15T01:51:56.966Z,100228.94
2023-07-15T01:52:09.525Z,100247.44
2023-07-15T01:52:21.970Z,100234.13
2023-07-15T01:52:34.281Z,100245.56
2023-07-15T01:52:48.362Z,100239.56
2023-07-15T01:53:00.627Z,100244.19
2023-07-15T01:53:13.199Z,100239.03
2023-07-15T01:53:30.926Z,100248.53
2023-07-15T01:53:44.458Z,100241.47
2023-07-15T01:53:56.554Z,100240.09
2023-07-15T01:54:10.405Z,100234.38
2023-07-15T01:54:22.441Z,100242.81
2023-07-15T01:54:37.254Z,100236.00
2023-07-15T01:54:49.716Z,100239.56
2023-07-15T01:55:02.034Z,100238.22
2023-07-15T01:55:14.192Z,100242.56
2023-07-15T01:55:26.551Z,100236.84
2023-07-15T01:55:38.552Z,100237.91
2023-07-15T01:55:51.195Z,100248.25
2023-07-15T01:56:05.548Z,100243.66
2023-07-15T01:56:18.095Z,100249.88
2023-07-15T01:56:33.213Z,100244.47
2023-07-15T01:56:45.645Z,100240.09
2023-07-15T01:56:57.774Z,100238.16
2023-07-15T01:57:10.632Z,100242.81
2023-07-15T01:57:22.918Z,100241.19
2023-07-15T01:57:35.566Z,100240.94
2023-07-15T01:57:47.933Z,100238.44
2023-07-15T01:58:00.223Z,100229.47
2023-07-15T01:58:12.580Z,100251.78
2023-07-15T01:58:24.919Z,100245.53
2023-07-15T01:58:37.616Z,100246.63
2023-07-15T01:58:50.799Z,100243.91
2023-07-15T01:59:03.202Z,100233.00
2023-07-15T01:59:15.471Z,100233.00
2023-07-15T01:59:30.070Z,100240.63
2023-07-15T01:59:42.757Z,100245.81
2023-07-15T01:59:55.188Z,100249.59
2023-07-15T02:00:10.104Z,100241.97
2023-07-15T02:00:25.904Z,100244.44
2023-07-15T02:00:38.456Z,100231.63
2023-07-15T02:00:50.992Z,100242.28
2023-07-15T02:01:03.536Z,100241.72
2023-07-15T02:01:15.749Z,100239.81
2023-07-15T02:01:28.372Z,100243.88
2023-07-15T02:01:41.209Z,100241.72
2023-07-15T02:01:56.346Z,100240.06
2023-07-15T02:02:09.131Z,100237.63
2023-07-15T02:02:21.450Z,100245.81
2023-07-15T02:02:33.703Z,100239.00
2023-07-15T02:02:46.530Z,100243.59
2023-07-15T02:02:59.352Z,100232.72
2023-07-15T02:03:11.846Z,100239.25
2023-07-15T02:03:24.526Z,100242.78
2023-07-15T02:03:36.989Z,100244.69
2023-07-15T02:03:49.539Z,100246.31
2023-07-15T02:04:02.162Z,100246.31
2023-07-15T02:04:14.568Z,100241.97
2023-07-15T02:04:27.223Z,100242.78
2023-07-15T02:04:39.753Z,100230.50
2023-07-15T02:04:52.077Z,100242.22
2023-07-15T02:05:05.578Z,100242.78
2023-07-15T02:05:17.668Z,100240.84
2023-07-15T02:05:30.206Z,100240.34
2023-07-15T02:05:44.826Z,100244.69
2023-07-15T02:05:57.317Z,100233.50
2023-07-15T02:06:09.887Z,100238.44
2023-07-15T02:06:23.017Z,100239.00
2023-07-15T02:06:35.501Z,100246.59
2023-07-15T02:06:48.089Z,100246.31
2023-07-15T02:07:00.418Z,100237.88
2023-07-15T02:07:12.887Z,100245.50
2023-07-15T02:07:25.090Z,100243.59
2023-07-15T02:07:37.431Z,100239.00
2023-07-15T02:07:51.098Z,100242.22
2023-07-15T02:08:06.593Z,100238.69
2023-07-15T02:08:18.861Z,100243.59
2023-07-15T02:08:31.141Z,100238.69
2023-07-15T02:08:43.233Z,100249.03
2023-07-15T02:08:57.902Z,100235.41
2023-07-15T02:09:12.131Z,100232.13
2023-07-15T02:09:24.460Z,100238.94
2023-07-15T02:09:37.017Z,100244.69
2023-07-15T02:09:49.335Z,100237.06
2023-07-15T02:10:01.611Z,100248.22
2023-07-15T02:10:14.092Z,100242.22
2023-07-15T02:10:26.610Z,100243.06
2023-07-15T02:10:39.039Z,100244.69
2023-07-15T02:10:50.992Z,100251.75
2023-07-15T02:11:03.229Z,100237.06
2023-07-15T02:11:15.538Z,100240.03
2023-07-15T02:11:27.756Z,100245.78
2023-07-15T02:11:39.945Z,100250.13
2023-07-15T02:11:55.191Z,100238.66
2023-07-15T02:12:08.568Z,100245.78
2023-07-15T02:12:21.215Z,100242.19
2023-07-15T02:12:33.480Z,100238.91
2023-07-15T02:12:45.675Z,100244.91
2023-07-15T02:12:57.871Z,100257.72
2023-07-15T02:13:10.466Z,100251.47
2023-07-15T02:13:22.506Z,100242.50
2023-07-15T02:13:34.775Z,100237.84
2023-07-15T02:13:46.955Z,100242.69
2023-07-15T02:13:59.440Z,100250.91
2023-07-15T02:14:12.008Z,100251.72
2023-07-15T02:14:24.347Z,100248.19
2023-07-15T02:14:37.076Z,100246.25
2023-07-15T02:14:52.493Z,100243.53
2023-07-15T02:15:05.959Z,100249.00
2023-07-15T02:15:18.509Z,100249.53
2023-07-15T02:15:30.782Z,100250.09
2023-07-15T02:15:43.168Z,100250.09
2023-07-15T02:15:56.553Z,100244.66
2023-07-15T02:16:09.493Z,100250.91
2023-07-15T02:16:21.965Z,100240.22
2023-07-15T02:16:36.345Z,100240.81
2023-07-15T02:16:48.960Z,100248.44
2023-07-15T02:17:01.405Z,100234.78
2023-07-15T02:17:16.161Z,100236.69
2023-07-15T02:17:28.225Z,100247.63
2023-07-15T02:17:44.681Z,100239.97
2023-07-15T02:17:57.296Z,100228.25
2023-07-15T02:18:09.715Z,100244.91
2023-07-15T02:18:22.606Z,100244.09
2023-07-15T02:18:39.762Z,100241.84
2023-07-15T02:18:52.463Z,100244.34
2023-07-15T02:19:04.795Z,100237.50
2023-07-15T02:19:20.108Z,100240.47
2023-07-15T02:19:35.022Z,100244.34
2023-07-15T02:19:47.158Z,100246.25
2023-07-15T02:19:59.680Z,100242.09
2023-07-15T02:20:13.033Z,100247.63
2023-07-15T02:20:26.259Z,100241.31
2023-07-15T02:20:38.757Z,100242.69
2023-07-15T02:20:51.256Z,100244.56
2023-07-15T02:21:04.530Z,100245.66
2023-07-15T02:21:16.975Z,100254.41
2023-07-15T02:21:29.594Z,100245.41
2023-07-15T02:21:42.428Z,100245.41
2023-07-15T02:21:54.497Z,100239.97
2023-07-15T02:22:09.257Z,100241.56
2023-07-15T02:22:24.428Z,100244.56
2023-07-15T02:22:37.051Z,100234.50
2023-07-15T02:22:50.981Z,100238.31
2023-07-15T02:23:04.104Z,100236.16
2023-07-15T02:23:16.926Z,100244.56
2023-07-15T02:23:32.488Z,100233.19
2023-07-15T02:23:45.483Z,100244.84
2023-07-15T02:23:58.487Z,100245.41
2023-07-15T02:24:11.009Z,100250.00
2023-07-15T02:24:23.691Z,100238.31
2023-07-15T02:24:39.319Z,100247.28
2023-07-15T02:25:00.671Z,100236.41
2023-07-15T02:25:15.862Z,100249.19
2023-07-15T02:25:30.257Z,100238.31
2023-07-15T02:25:45.813Z,100233.69
2023-07-15T02:25:58.668Z,100244.56
2023-07-15T02:26:10.963Z,100246.25
2023-07-15T02:26:23.507Z,100251.44
2023-07-15T02:26:36.044Z,100245.66
2023-07-15T02:26:48.674Z,100232.88
2023-07-15T02:27:00.966Z,100240.22
2023-07-15T02:27:16.801Z,100232.31
2023-07-15T02:27:31.570Z,100244.56
2023-07-15T02:27:44.191Z,100243.53
2023-07-15T02:27:58.928Z,100250.59
2023-07-15T02:28:11.487Z,100251.44
2023-07-15T02:28:24.428Z,100252.50
2023-07-15T02:28:36.869Z,100237.22
2023-07-15T02:28:49.472Z,100248.63
2023-07-15T02:29:02.108Z,100233.69
2023-07-15T02:29:22.339Z,100244.56
2023-07-15T02:29:34.873Z,100242.13
2023-07-15T02:29:47.875Z,100234.22
2023-07-15T02:30:00.679Z,100235.34
2023-07-15T02:30:13.535Z,100234.50
2023-07-15T02:30:26.179Z,100250.84
2023-07-15T02:30:41.246Z,100246.75
2023-07-15T02:30:54.132Z,100243.75
2023-07-15T02:31:06.998Z,100239.09
2023-07-15T02:31:20.034Z,100242.38
2023-07-15T02:31:32.753Z,100232.63
2023-07-15T02:31:45.758Z,100250.28
2023-07-15T02:32:03.249Z,100250.28
2023-07-15T02:32:17.033Z,100246.19
2023-07-15T02:32:36.920Z,100241.81
2023-07-15T02:32:49.960Z,100247.81
2023-07-15T02:33:02.949Z,100245.34
2023-07-15T02:33:15.579Z,100247.53
2023-07-15T02:33:28.076Z,100249.47